This is the latest recevied weather packets stored in our database for station/object OE9XVI-6. If no packets are shown the sender has not sent any weather packets the latest 10 day(s).
| Time | Temp. | Humidity | Pressure | Rain* | Wind** | Luminosity | Snow |
|---|---|---|---|---|---|---|---|
| 1778098010 | 9.44° C | 74% | 1010.9 hPa | 0 mm | - | - | - |
| 1778097410 | 9.44° C | 73% | 1010.9 hPa | 0 mm | - | - | - |
| 1778096810 | 10° C | 72% | 1010.9 hPa | 0 mm | - | - | - |
| 1778096210 | 10° C | 71% | 1010.7 hPa | 0 mm | - | - | - |
| 1778095610 | 10° C | 69% | 1010.6 hPa | 0 mm | - | - | - |
| 1778095010 | 10.56° C | 69% | 1010.5 hPa | 0 mm | - | - | - |
| 1778094410 | 11.11° C | 69% | 1010.5 hPa | 0 mm | - | - | - |
| 1778093810 | 11.67° C | 65% | 1010.1 hPa | 0 mm | - | - | - |
| 1778093210 | 12.78° C | 62% | 1010 hPa | 0 mm | - | - | - |
| 1778092610 | 14.44° C | 58% | 1009.9 hPa | 0 mm | - | - | - |
| 1778092010 | 17.22° C | 51% | 1009.8 hPa | 0 mm | - | - | - |
| 1778091410 | 22.22° C | 44% | 1009.7 hPa | 0 mm | - | - | - |
| 1778090810 | 23.89° C | 44% | 1009.7 hPa | 0 mm | - | - | - |
| 1778090210 | 22.78° C | 49% | 1009.5 hPa | 0 mm | - | - | - |
| 1778089610 | 18.89° C | 59% | 1009.4 hPa | 0 mm | - | - | - |
| 1778089010 | 11.67° C | 81% | 1009.4 hPa | 0 mm | - | - | - |
| 1778088410 | 8.89° C | 86% | 1009.3 hPa | 0 mm | - | - | - |
| 1778087810 | 8.89° C | 84% | 1009.3 hPa | 0 mm | - | - | - |
| 1778087210 | 10° C | 77% | 1009.1 hPa | 0 mm | - | - | - |
| 1778086610 | 11.11° C | 67% | 1009.1 hPa | 0 mm | - | - | - |
| 1778086010 | 11.67° C | 71% | 1009 hPa | 0 mm | - | - | - |
| 1778085410 | 15° C | 46% | 1008.7 hPa | 0 mm | - | - | - |
| 1778084810 | 21.11° C | 44% | 1008.7 hPa | 0 mm | - | - | - |
| 1778084210 | 17.78° C | 76% | 1008.7 hPa | 0 mm | - | - | - |
| 1778083610 | 10° C | 81% | 1008.6 hPa | 0.25 mm | - | - | - |
* Rain latest hour (hover to see other rain measurements)
** Current wind speed in m/s (hover to see current wind gust speed)